sensor_id;sensor_type;location;lat;lon;timestamp;temperature;humidity
8008;DHT22;4049;49.468;11.200;2023-10-09T00:01:26;12.20;99.90
8008;DHT22;4049;49.468;11.200;2023-10-09T00:03:53;12.10;99.90
8008;DHT22;4049;49.468;11.200;2023-10-09T00:06:22;12.10;99.90
8008;DHT22;4049;49.468;11.200;2023-10-09T00:08:57;12.10;99.90
8008;DHT22;4049;49.468;11.200;2023-10-09T00:11:37;12.10;99.90
8008;DHT22;4049;49.468;11.200;2023-10-09T00:14:07;12.10;99.90
8008;DHT22;4049;49.468;11.200;2023-10-09T00:16:35;12.10;99.90
8008;DHT22;4049;49.468;11.200;2023-10-09T00:19:08;12.10;99.90
8008;DHT22;4049;49.468;11.200;2023-10-09T00:21:46;12.10;99.90
8008;DHT22;4049;49.468;11.200;2023-10-09T00:24:13;12.10;99.90
8008;DHT22;4049;49.468;11.200;2023-10-09T00:26:49;12.00;99.90
8008;DHT22;4049;49.468;11.200;2023-10-09T00:29:17;12.00;99.90
8008;DHT22;4049;49.468;11.200;2023-10-09T00:31:51;12.00;99.90
8008;DHT22;4049;49.468;11.200;2023-10-09T00:34:38;12.00;99.90
8008;DHT22;4049;49.468;11.200;2023-10-09T00:37:06;12.00;99.90
8008;DHT22;4049;49.468;11.200;2023-10-09T00:39:36;12.00;99.90
8008;DHT22;4049;49.468;11.200;2023-10-09T00:42:09;12.00;99.90
8008;DHT22;4049;49.468;11.200;2023-10-09T00:44:38;11.90;99.90
8008;DHT22;4049;49.468;11.200;2023-10-09T00:47:10;11.90;99.90
8008;DHT22;4049;49.468;11.200;2023-10-09T00:49:49;11.90;99.90
8008;DHT22;4049;49.468;11.200;2023-10-09T00:52:17;11.90;99.90
8008;DHT22;4049;49.468;11.200;2023-10-09T00:54:49;11.90;99.90
8008;DHT22;4049;49.468;11.200;2023-10-09T00:57:18;11.90;99.90
8008;DHT22;4049;49.468;11.200;2023-10-09T00:59:52;11.90;99.90
8008;DHT22;4049;49.468;11.200;2023-10-09T01:02:27;11.90;99.90
8008;DHT22;4049;49.468;11.200;2023-10-09T01:05:02;11.90;99.90
8008;DHT22;4049;49.468;11.200;2023-10-09T01:07:48;11.90;99.90
8008;DHT22;4049;49.468;11.200;2023-10-09T01:10:23;11.90;99.90
8008;DHT22;4049;49.468;11.200;2023-10-09T01:12:59;11.90;99.90
8008;DHT22;4049;49.468;11.200;2023-10-09T01:15:26;12.00;99.90
8008;DHT22;4049;49.468;11.200;2023-10-09T01:18:11;11.90;99.90
8008;DHT22;4049;49.468;11.200;2023-10-09T01:20:38;11.90;99.90
8008;DHT22;4049;49.468;11.200;2023-10-09T01:23:12;11.90;99.90
8008;DHT22;4049;49.468;11.200;2023-10-09T01:25:39;11.90;99.90
8008;DHT22;4049;49.468;11.200;2023-10-09T01:28:11;11.90;99.90
8008;DHT22;4049;49.468;11.200;2023-10-09T01:30:41;11.90;99.90
8008;DHT22;4049;49.468;11.200;2023-10-09T01:33:08;11.90;99.90
8008;DHT22;4049;49.468;11.200;2023-10-09T01:35:50;11.90;99.90
8008;DHT22;4049;49.468;11.200;2023-10-09T01:38:25;11.90;99.90
8008;DHT22;4049;49.468;11.200;2023-10-09T01:41:07;12.00;99.90
8008;DHT22;4049;49.468;11.200;2023-10-09T01:43:35;12.00;99.90
8008;DHT22;4049;49.468;11.200;2023-10-09T01:46:02;12.00;99.90
8008;DHT22;4049;49.468;11.200;2023-10-09T01:48:31;11.90;99.90
8008;DHT22;4049;49.468;11.200;2023-10-09T01:51:03;12.00;99.90
8008;DHT22;4049;49.468;11.200;2023-10-09T01:53:35;11.90;99.90
8008;DHT22;4049;49.468;11.200;2023-10-09T01:56:12;12.00;99.90
8008;DHT22;4049;49.468;11.200;2023-10-09T01:58:42;11.90;99.90
8008;DHT22;4049;49.468;11.200;2023-10-09T02:01:13;12.00;99.90
8008;DHT22;4049;49.468;11.200;2023-10-09T02:03:40;12.00;99.90
8008;DHT22;4049;49.468;11.200;2023-10-09T02:06:10;12.00;99.90
8008;DHT22;4049;49.468;11.200;2023-10-09T02:08:54;12.00;99.90
8008;DHT22;4049;49.468;11.200;2023-10-09T02:11:22;12.00;99.90
8008;DHT22;4049;49.468;11.200;2023-10-09T02:14:03;12.00;99.90
8008;DHT22;4049;49.468;11.200;2023-10-09T02:16:41;12.00;99.90
8008;DHT22;4049;49.468;11.200;2023-10-09T02:19:08;12.00;99.90
8008;DHT22;4049;49.468;11.200;2023-10-09T02:21:54;12.00;99.90
8008;DHT22;4049;49.468;11.200;2023-10-09T02:24:23;11.90;99.90
8008;DHT22;4049;49.468;11.200;2023-10-09T02:27:08;11.90;99.90
8008;DHT22;4049;49.468;11.200;2023-10-09T02:29:38;12.00;99.90
8008;DHT22;4049;49.468;11.200;2023-10-09T02:32:07;12.00;99.90
8008;DHT22;4049;49.468;11.200;2023-10-09T02:34:45;12.00;99.90
8008;DHT22;4049;49.468;11.200;2023-10-09T02:37:12;12.00;99.90
8008;DHT22;4049;49.468;11.200;2023-10-09T02:39:41;12.00;99.90
8008;DHT22;4049;49.468;11.200;2023-10-09T02:42:13;12.00;99.90
8008;DHT22;4049;49.468;11.200;2023-10-09T02:44:53;12.00;99.90
8008;DHT22;4049;49.468;11.200;2023-10-09T02:47:21;12.00;99.90
8008;DHT22;4049;49.468;11.200;2023-10-09T02:49:50;12.00;99.90
8008;DHT22;4049;49.468;11.200;2023-10-09T02:52:18;12.00;99.90
8008;DHT22;4049;49.468;11.200;2023-10-09T02:54:52;12.00;99.90
8008;DHT22;4049;49.468;11.200;2023-10-09T02:57:26;12.00;99.90
8008;DHT22;4049;49.468;11.200;2023-10-09T03:00:02;12.00;99.90
8008;DHT22;4049;49.468;11.200;2023-10-09T03:02:34;11.90;99.90
8008;DHT22;4049;49.468;11.200;2023-10-09T03:05:05;11.90;99.90
8008;DHT22;4049;49.468;11.200;2023-10-09T03:07:37;11.90;99.90
8008;DHT22;4049;49.468;11.200;2023-10-09T03:10:07;11.90;99.90
8008;DHT22;4049;49.468;11.200;2023-10-09T03:12:35;11.90;99.90
8008;DHT22;4049;49.468;11.200;2023-10-09T03:15:02;11.90;99.90
8008;DHT22;4049;49.468;11.200;2023-10-09T03:17:31;11.90;99.90
8008;DHT22;4049;49.468;11.200;2023-10-09T03:20:01;12.00;99.90
8008;DHT22;4049;49.468;11.200;2023-10-09T03:22:29;11.90;99.90
8008;DHT22;4049;49.468;11.200;2023-10-09T03:24:56;11.90;99.90
8008;DHT22;4049;49.468;11.200;2023-10-09T03:27:24;11.90;99.90
8008;DHT22;4049;49.468;11.200;2023-10-09T03:29:51;11.90;99.90
8008;DHT22;4049;49.468;11.200;2023-10-09T03:32:19;11.90;99.90
8008;DHT22;4049;49.468;11.200;2023-10-09T03:34:46;11.90;99.90
8008;DHT22;4049;49.468;11.200;2023-10-09T03:37:15;11.90;99.90
8008;DHT22;4049;49.468;11.200;2023-10-09T03:39:47;11.90;99.90
8008;DHT22;4049;49.468;11.200;2023-10-09T03:42:17;11.90;99.90
8008;DHT22;4049;49.468;11.200;2023-10-09T03:44:47;11.90;99.90
8008;DHT22;4049;49.468;11.200;2023-10-09T03:47:18;11.90;99.90
8008;DHT22;4049;49.468;11.200;2023-10-09T03:49:48;11.90;99.90
8008;DHT22;4049;49.468;11.200;2023-10-09T03:52:16;11.90;99.90
8008;DHT22;4049;49.468;11.200;2023-10-09T03:54:44;11.90;99.90
8008;DHT22;4049;49.468;11.200;2023-10-09T03:57:12;11.80;99.90
8008;DHT22;4049;49.468;11.200;2023-10-09T03:59:45;11.80;99.90
8008;DHT22;4049;49.468;11.200;2023-10-09T04:02:12;11.80;99.90
8008;DHT22;4049;49.468;11.200;2023-10-09T04:04:40;11.80;99.90
8008;DHT22;4049;49.468;11.200;2023-10-09T04:07:11;11.70;99.90
8008;DHT22;4049;49.468;11.200;2023-10-09T04:09:38;11.70;99.90
8008;DHT22;4049;49.468;11.200;2023-10-09T04:12:10;11.60;99.90
8008;DHT22;4049;49.468;11.200;2023-10-09T04:14:47;11.60;99.90
8008;DHT22;4049;49.468;11.200;2023-10-09T04:17:16;11.60;99.90
8008;DHT22;4049;49.468;11.200;2023-10-09T04:20:06;11.60;99.90
8008;DHT22;4049;49.468;11.200;2023-10-09T04:22:56;11.60;99.90
8008;DHT22;4049;49.468;11.200;2023-10-09T04:25:30;11.50;99.90
8008;DHT22;4049;49.468;11.200;2023-10-09T04:28:07;11.50;99.90
8008;DHT22;4049;49.468;11.200;2023-10-09T04:30:37;11.50;99.90
8008;DHT22;4049;49.468;11.200;2023-10-09T04:33:08;11.50;99.90
8008;DHT22;4049;49.468;11.200;2023-10-09T04:35:53;11.50;99.90
8008;DHT22;4049;49.468;11.200;2023-10-09T04:38:34;11.40;99.90
8008;DHT22;4049;49.468;11.200;2023-10-09T04:41:05;11.30;99.90
8008;DHT22;4049;49.468;11.200;2023-10-09T04:43:33;11.30;99.90
8008;DHT22;4049;49.468;11.200;2023-10-09T04:46:00;11.30;99.90
8008;DHT22;4049;49.468;11.200;2023-10-09T04:48:37;11.30;99.90
8008;DHT22;4049;49.468;11.200;2023-10-09T04:51:05;11.30;99.90
8008;DHT22;4049;49.468;11.200;2023-10-09T04:53:47;11.20;99.90
8008;DHT22;4049;49.468;11.200;2023-10-09T04:56:25;11.20;99.90
8008;DHT22;4049;49.468;11.200;2023-10-09T04:58:57;11.20;99.90
8008;DHT22;4049;49.468;11.200;2023-10-09T05:01:30;11.20;99.90
8008;DHT22;4049;49.468;11.200;2023-10-09T05:04:09;11.20;99.90
8008;DHT22;4049;49.468;11.200;2023-10-09T05:06:53;11.10;99.90
8008;DHT22;4049;49.468;11.200;2023-10-09T05:09:23;11.10;99.90
8008;DHT22;4049;49.468;11.200;2023-10-09T05:11:49;11.10;99.90
8008;DHT22;4049;49.468;11.200;2023-10-09T05:14:33;11.10;99.90
8008;DHT22;4049;49.468;11.200;2023-10-09T05:17:12;11.00;99.90
8008;DHT22;4049;49.468;11.200;2023-10-09T05:19:42;11.00;99.90
8008;DHT22;4049;49.468;11.200;2023-10-09T05:22:20;11.00;99.90
8008;DHT22;4049;49.468;11.200;2023-10-09T05:25:02;11.00;99.90
8008;DHT22;4049;49.468;11.200;2023-10-09T05:27:40;10.90;99.90
8008;DHT22;4049;49.468;11.200;2023-10-09T05:30:16;10.90;99.90
8008;DHT22;4049;49.468;11.200;2023-10-09T05:32:56;10.90;99.90
8008;DHT22;4049;49.468;11.200;2023-10-09T05:35:45;10.90;99.90
8008;DHT22;4049;49.468;11.200;2023-10-09T05:38:31;10.80;99.90
8008;DHT22;4049;49.468;11.200;2023-10-09T05:41:01;10.80;99.90
8008;DHT22;4049;49.468;11.200;2023-10-09T05:43:51;10.80;99.90
8008;DHT22;4049;49.468;11.200;2023-10-09T05:46:35;10.70;99.90
8008;DHT22;4049;49.468;11.200;2023-10-09T05:49:04;10.60;99.90
8008;DHT22;4049;49.468;11.200;2023-10-09T05:51:45;10.60;99.90
8008;DHT22;4049;49.468;11.200;2023-10-09T05:54:19;10.60;99.90
8008;DHT22;4049;49.468;11.200;2023-10-09T05:57:12;10.60;99.90
8008;DHT22;4049;49.468;11.200;2023-10-09T05:59:56;10.60;99.90
8008;DHT22;4049;49.468;11.200;2023-10-09T06:02:40;10.60;99.90
8008;DHT22;4049;49.468;11.200;2023-10-09T06:05:26;10.60;99.90
8008;DHT22;4049;49.468;11.200;2023-10-09T06:08:17;10.60;99.90
8008;DHT22;4049;49.468;11.200;2023-10-09T06:10:50;10.60;99.90
8008;DHT22;4049;49.468;11.200;2023-10-09T06:13:31;10.60;99.90
8008;DHT22;4049;49.468;11.200;2023-10-09T06:16:04;10.60;99.90
8008;DHT22;4049;49.468;11.200;2023-10-09T06:18:55;10.70;99.90
8008;DHT22;4049;49.468;11.200;2023-10-09T06:21:35;10.70;99.90
8008;DHT22;4049;49.468;11.200;2023-10-09T06:24:22;10.70;99.90
8008;DHT22;4049;49.468;11.200;2023-10-09T06:26:50;10.70;99.90
8008;DHT22;4049;49.468;11.200;2023-10-09T06:29:31;10.80;99.90
8008;DHT22;4049;49.468;11.200;2023-10-09T06:32:02;10.70;99.90
8008;DHT22;4049;49.468;11.200;2023-10-09T06:35:00;10.80;99.90
8008;DHT22;4049;49.468;11.200;2023-10-09T06:37:43;10.80;99.90
8008;DHT22;4049;49.468;11.200;2023-10-09T06:40:24;10.90;99.90
8008;DHT22;4049;49.468;11.200;2023-10-09T06:43:04;10.90;99.90
8008;DHT22;4049;49.468;11.200;2023-10-09T06:45:35;10.90;99.90
8008;DHT22;4049;49.468;11.200;2023-10-09T06:48:10;11.00;99.90
8008;DHT22;4049;49.468;11.200;2023-10-09T06:50:51;11.00;99.90
8008;DHT22;4049;49.468;11.200;2023-10-09T06:53:31;11.00;99.90
8008;DHT22;4049;49.468;11.200;2023-10-09T06:56:21;11.10;99.90
8008;DHT22;4049;49.468;11.200;2023-10-09T06:58:52;11.10;99.90
8008;DHT22;4049;49.468;11.200;2023-10-09T07:01:20;11.10;99.90
8008;DHT22;4049;49.468;11.200;2023-10-09T07:03:54;11.20;99.90
8008;DHT22;4049;49.468;11.200;2023-10-09T07:06:26;11.20;99.90
8008;DHT22;4049;49.468;11.200;2023-10-09T07:09:08;11.20;99.90
8008;DHT22;4049;49.468;11.200;2023-10-09T07:11:45;11.30;99.90
8008;DHT22;4049;49.468;11.200;2023-10-09T07:14:28;11.30;99.90
8008;DHT22;4049;49.468;11.200;2023-10-09T07:17:12;11.30;99.90
8008;DHT22;4049;49.468;11.200;2023-10-09T07:19:47;11.40;99.90
8008;DHT22;4049;49.468;11.200;2023-10-09T07:22:36;11.50;99.90
8008;DHT22;4049;49.468;11.200;2023-10-09T07:25:20;11.60;99.90
8008;DHT22;4049;49.468;11.200;2023-10-09T07:28:05;11.60;99.90
8008;DHT22;4049;49.468;11.200;2023-10-09T07:30:44;11.60;99.90
8008;DHT22;4049;49.468;11.200;2023-10-09T07:33:12;11.60;99.90
8008;DHT22;4049;49.468;11.200;2023-10-09T07:35:44;11.70;99.90
8008;DHT22;4049;49.468;11.200;2023-10-09T07:38:15;11.80;99.90
8008;DHT22;4049;49.468;11.200;2023-10-09T07:40:47;11.80;99.90
8008;DHT22;4049;49.468;11.200;2023-10-09T07:43:21;11.90;99.90
8008;DHT22;4049;49.468;11.200;2023-10-09T07:45:53;12.00;99.90
8008;DHT22;4049;49.468;11.200;2023-10-09T07:48:37;12.00;99.90
8008;DHT22;4049;49.468;11.200;2023-10-09T07:51:14;12.10;99.90
8008;DHT22;4049;49.468;11.200;2023-10-09T07:53:41;12.10;99.90
8008;DHT22;4049;49.468;11.200;2023-10-09T07:56:11;12.20;99.90
8008;DHT22;4049;49.468;11.200;2023-10-09T07:58:39;12.30;99.90
8008;DHT22;4049;49.468;11.200;2023-10-09T08:01:13;12.40;99.90
8008;DHT22;4049;49.468;11.200;2023-10-09T08:03:48;12.50;99.90
8008;DHT22;4049;49.468;11.200;2023-10-09T08:06:23;12.60;99.90
8008;DHT22;4049;49.468;11.200;2023-10-09T08:09:04;12.70;99.90
8008;DHT22;4049;49.468;11.200;2023-10-09T08:11:55;12.80;99.90
8008;DHT22;4049;49.468;11.200;2023-10-09T08:14:40;12.90;99.90
8008;DHT22;4049;49.468;11.200;2023-10-09T08:17:11;13.00;99.90
8008;DHT22;4049;49.468;11.200;2023-10-09T08:19:41;13.20;99.90
8008;DHT22;4049;49.468;11.200;2023-10-09T08:22:21;13.30;99.90
8008;DHT22;4049;49.468;11.200;2023-10-09T08:25:06;13.40;99.90
8008;DHT22;4049;49.468;11.200;2023-10-09T08:27:35;13.50;99.90
8008;DHT22;4049;49.468;11.200;2023-10-09T08:30:13;13.60;99.90
8008;DHT22;4049;49.468;11.200;2023-10-09T08:32:54;13.70;99.90
8008;DHT22;4049;49.468;11.200;2023-10-09T08:35:26;13.80;99.90
8008;DHT22;4049;49.468;11.200;2023-10-09T08:37:56;13.90;99.90
8008;DHT22;4049;49.468;11.200;2023-10-09T08:40:32;14.10;99.90
8008;DHT22;4049;49.468;11.200;2023-10-09T08:43:08;14.20;99.90
8008;DHT22;4049;49.468;11.200;2023-10-09T08:45:38;14.30;99.90
8008;DHT22;4049;49.468;11.200;2023-10-09T08:48:07;14.40;99.90
8008;DHT22;4049;49.468;11.200;2023-10-09T08:50:34;14.40;99.90
8008;DHT22;4049;49.468;11.200;2023-10-09T08:53:02;14.50;99.90
8008;DHT22;4049;49.468;11.200;2023-10-09T08:55:30;14.60;99.90
8008;DHT22;4049;49.468;11.200;2023-10-09T08:57:57;14.60;99.90
8008;DHT22;4049;49.468;11.200;2023-10-09T09:00:25;14.80;99.90
8008;DHT22;4049;49.468;11.200;2023-10-09T09:02:59;14.80;99.90
8008;DHT22;4049;49.468;11.200;2023-10-09T09:05:27;14.90;99.90
8008;DHT22;4049;49.468;11.200;2023-10-09T09:07:55;15.00;99.90
8008;DHT22;4049;49.468;11.200;2023-10-09T09:10:28;15.00;99.90
8008;DHT22;4049;49.468;11.200;2023-10-09T09:13:01;15.10;99.90
8008;DHT22;4049;49.468;11.200;2023-10-09T09:15:30;15.20;99.90
8008;DHT22;4049;49.468;11.200;2023-10-09T09:18:04;15.40;99.90
8008;DHT22;4049;49.468;11.200;2023-10-09T09:20:35;15.50;99.90
8008;DHT22;4049;49.468;11.200;2023-10-09T09:23:10;15.50;99.90
8008;DHT22;4049;49.468;11.200;2023-10-09T09:25:43;15.70;99.90
8008;DHT22;4049;49.468;11.200;2023-10-09T09:28:11;15.80;99.90
8008;DHT22;4049;49.468;11.200;2023-10-09T09:30:47;15.90;99.90
8008;DHT22;4049;49.468;11.200;2023-10-09T09:33:20;16.00;99.90
8008;DHT22;4049;49.468;11.200;2023-10-09T09:35:57;16.00;99.90
8008;DHT22;4049;49.468;11.200;2023-10-09T09:38:26;16.10;99.90
8008;DHT22;4049;49.468;11.200;2023-10-09T09:40:56;16.10;99.90
8008;DHT22;4049;49.468;11.200;2023-10-09T09:43:23;16.10;99.90
8008;DHT22;4049;49.468;11.200;2023-10-09T09:45:55;16.10;99.90
8008;DHT22;4049;49.468;11.200;2023-10-09T09:48:23;16.10;99.90
8008;DHT22;4049;49.468;11.200;2023-10-09T09:50:52;16.10;99.90
8008;DHT22;4049;49.468;11.200;2023-10-09T09:53:19;16.10;99.90
8008;DHT22;4049;49.468;11.200;2023-10-09T09:55:50;16.10;99.90
8008;DHT22;4049;49.468;11.200;2023-10-09T09:58:23;16.10;99.90
8008;DHT22;4049;49.468;11.200;2023-10-09T10:00:59;16.20;99.90
8008;DHT22;4049;49.468;11.200;2023-10-09T10:03:36;16.20;99.90
8008;DHT22;4049;49.468;11.200;2023-10-09T10:06:05;16.20;99.90
8008;DHT22;4049;49.468;11.200;2023-10-09T10:08:36;16.20;99.90
8008;DHT22;4049;49.468;11.200;2023-10-09T10:11:05;16.30;99.90
8008;DHT22;4049;49.468;11.200;2023-10-09T10:13:54;16.30;99.90
8008;DHT22;4049;49.468;11.200;2023-10-09T10:16:25;16.30;99.90
8008;DHT22;4049;49.468;11.200;2023-10-09T10:19:01;16.40;99.90
8008;DHT22;4049;49.468;11.200;2023-10-09T10:21:47;16.40;99.90
8008;DHT22;4049;49.468;11.200;2023-10-09T10:24:40;16.40;99.90
8008;DHT22;4049;49.468;11.200;2023-10-09T10:27:21;16.40;99.90
8008;DHT22;4049;49.468;11.200;2023-10-09T10:30:28;16.50;99.90
8008;DHT22;4049;49.468;11.200;2023-10-09T10:33:04;16.50;99.90
8008;DHT22;4049;49.468;11.200;2023-10-09T10:35:41;16.60;99.90
8008;DHT22;4049;49.468;11.200;2023-10-09T10:38:31;16.60;99.90
8008;DHT22;4049;49.468;11.200;2023-10-09T10:41:12;16.70;99.90
8008;DHT22;4049;49.468;11.200;2023-10-09T10:43:42;16.70;99.90
8008;DHT22;4049;49.468;11.200;2023-10-09T10:46:22;16.70;99.90
8008;DHT22;4049;49.468;11.200;2023-10-09T10:49:01;16.70;99.90
8008;DHT22;4049;49.468;11.200;2023-10-09T10:51:41;16.80;99.90
8008;DHT22;4049;49.468;11.200;2023-10-09T10:54:20;16.80;99.90
8008;DHT22;4049;49.468;11.200;2023-10-09T10:57:18;16.80;99.90
8008;DHT22;4049;49.468;11.200;2023-10-09T10:59:54;16.90;99.90
8008;DHT22;4049;49.468;11.200;2023-10-09T11:02:39;16.90;99.90
8008;DHT22;4049;49.468;11.200;2023-10-09T11:05:08;17.00;99.90
8008;DHT22;4049;49.468;11.200;2023-10-09T11:07:51;17.10;99.90
8008;DHT22;4049;49.468;11.200;2023-10-09T11:10:22;17.10;99.90
8008;DHT22;4049;49.468;11.200;2023-10-09T11:12:54;17.10;99.90
8008;DHT22;4049;49.468;11.200;2023-10-09T11:15:47;17.10;99.90
8008;DHT22;4049;49.468;11.200;2023-10-09T11:18:23;17.20;99.90
8008;DHT22;4049;49.468;11.200;2023-10-09T11:20:55;17.20;99.90
8008;DHT22;4049;49.468;11.200;2023-10-09T11:23:45;17.30;99.90
8008;DHT22;4049;49.468;11.200;2023-10-09T11:26:24;17.30;99.90
8008;DHT22;4049;49.468;11.200;2023-10-09T11:29:06;17.40;99.90
8008;DHT22;4049;49.468;11.200;2023-10-09T11:31:41;17.50;99.90
8008;DHT22;4049;49.468;11.200;2023-10-09T11:34:20;17.60;99.90
8008;DHT22;4049;49.468;11.200;2023-10-09T11:37:00;17.60;99.90
8008;DHT22;4049;49.468;11.200;2023-10-09T11:39:28;17.60;99.90
8008;DHT22;4049;49.468;11.200;2023-10-09T11:42:01;17.60;99.90
8008;DHT22;4049;49.468;11.200;2023-10-09T11:44:39;17.60;99.90
8008;DHT22;4049;49.468;11.200;2023-10-09T11:47:10;17.60;99.90
8008;DHT22;4049;49.468;11.200;2023-10-09T11:49:50;17.60;99.90
8008;DHT22;4049;49.468;11.200;2023-10-09T11:52:55;17.60;99.90
8008;DHT22;4049;49.468;11.200;2023-10-09T11:55:37;17.60;99.90
8008;DHT22;4049;49.468;11.200;2023-10-09T11:58:04;17.70;99.90
8008;DHT22;4049;49.468;11.200;2023-10-09T12:00:32;17.80;99.90
8008;DHT22;4049;49.468;11.200;2023-10-09T12:03:10;17.80;99.90
8008;DHT22;4049;49.468;11.200;2023-10-09T12:05:42;17.80;99.90
8008;DHT22;4049;49.468;11.200;2023-10-09T12:08:12;17.80;99.90
8008;DHT22;4049;49.468;11.200;2023-10-09T12:10:41;17.80;99.90
8008;DHT22;4049;49.468;11.200;2023-10-09T12:13:08;17.70;99.90
8008;DHT22;4049;49.468;11.200;2023-10-09T12:15:35;17.70;99.90
8008;DHT22;4049;49.468;11.200;2023-10-09T12:18:06;17.70;99.90
8008;DHT22;4049;49.468;11.200;2023-10-09T12:20:40;17.70;99.90
8008;DHT22;4049;49.468;11.200;2023-10-09T12:23:07;17.70;99.90
8008;DHT22;4049;49.468;11.200;2023-10-09T12:25:40;17.60;99.90
8008;DHT22;4049;49.468;11.200;2023-10-09T12:28:11;17.50;99.90
8008;DHT22;4049;49.468;11.200;2023-10-09T12:30:39;17.60;99.90
8008;DHT22;4049;49.468;11.200;2023-10-09T12:33:07;17.60;99.90
8008;DHT22;4049;49.468;11.200;2023-10-09T12:35:38;17.60;99.90
8008;DHT22;4049;49.468;11.200;2023-10-09T12:38:06;17.60;99.90
8008;DHT22;4049;49.468;11.200;2023-10-09T12:40:39;17.70;99.90
8008;DHT22;4049;49.468;11.200;2023-10-09T12:43:07;17.60;99.90
8008;DHT22;4049;49.468;11.200;2023-10-09T12:45:41;17.70;99.90
8008;DHT22;4049;49.468;11.200;2023-10-09T12:48:08;17.70;99.90
8008;DHT22;4049;49.468;11.200;2023-10-09T12:50:35;17.80;99.90
8008;DHT22;4049;49.468;11.200;2023-10-09T12:53:08;17.80;99.90
8008;DHT22;4049;49.468;11.200;2023-10-09T12:55:36;17.80;99.90
8008;DHT22;4049;49.468;11.200;2023-10-09T12:58:08;17.80;99.90
8008;DHT22;4049;49.468;11.200;2023-10-09T13:00:36;17.90;99.90
8008;DHT22;4049;49.468;11.200;2023-10-09T13:03:09;17.90;99.90
8008;DHT22;4049;49.468;11.200;2023-10-09T13:05:46;18.00;99.90
8008;DHT22;4049;49.468;11.200;2023-10-09T13:08:20;18.00;99.90
8008;DHT22;4049;49.468;11.200;2023-10-09T13:10:51;18.00;99.90
8008;DHT22;4049;49.468;11.200;2023-10-09T13:13:28;18.10;99.90
8008;DHT22;4049;49.468;11.200;2023-10-09T13:16:09;18.10;99.90
8008;DHT22;4049;49.468;11.200;2023-10-09T13:18:39;18.10;99.90
8008;DHT22;4049;49.468;11.200;2023-10-09T13:21:06;18.10;99.90
8008;DHT22;4049;49.468;11.200;2023-10-09T13:23:33;18.10;99.90
8008;DHT22;4049;49.468;11.200;2023-10-09T13:26:07;18.10;99.90
8008;DHT22;4049;49.468;11.200;2023-10-09T13:28:50;18.10;99.90
8008;DHT22;4049;49.468;11.200;2023-10-09T13:31:17;18.10;99.90
8008;DHT22;4049;49.468;11.200;2023-10-09T13:33:47;18.20;99.90
8008;DHT22;4049;49.468;11.200;2023-10-09T13:36:15;18.10;99.90
8008;DHT22;4049;49.468;11.200;2023-10-09T13:38:52;18.20;99.90
8008;DHT22;4049;49.468;11.200;2023-10-09T13:41:20;18.30;99.90
8008;DHT22;4049;49.468;11.200;2023-10-09T13:43:48;18.30;99.90
8008;DHT22;4049;49.468;11.200;2023-10-09T13:46:17;18.30;99.90
8008;DHT22;4049;49.468;11.200;2023-10-09T13:48:44;18.30;99.90
8008;DHT22;4049;49.468;11.200;2023-10-09T13:51:14;18.40;99.90
8008;DHT22;4049;49.468;11.200;2023-10-09T13:53:43;18.40;99.90
8008;DHT22;4049;49.468;11.200;2023-10-09T13:56:14;18.40;99.90
8008;DHT22;4049;49.468;11.200;2023-10-09T13:58:50;18.40;99.90
8008;DHT22;4049;49.468;11.200;2023-10-09T14:01:17;18.40;99.90
8008;DHT22;4049;49.468;11.200;2023-10-09T14:03:54;18.40;99.90
8008;DHT22;4049;49.468;11.200;2023-10-09T14:06:21;18.40;99.90
8008;DHT22;4049;49.468;11.200;2023-10-09T14:08:56;18.40;99.90
8008;DHT22;4049;49.468;11.200;2023-10-09T14:11:23;18.40;99.90
8008;DHT22;4049;49.468;11.200;2023-10-09T14:13:52;18.30;99.90
8008;DHT22;4049;49.468;11.200;2023-10-09T14:16:19;18.40;99.90
8008;DHT22;4049;49.468;11.200;2023-10-09T14:18:54;18.40;99.90
8008;DHT22;4049;49.468;11.200;2023-10-09T14:21:23;18.30;99.90
8008;DHT22;4049;49.468;11.200;2023-10-09T14:23:51;18.30;99.90
8008;DHT22;4049;49.468;11.200;2023-10-09T14:26:23;18.40;99.90
8008;DHT22;4049;49.468;11.200;2023-10-09T14:28:52;18.40;99.90
8008;DHT22;4049;49.468;11.200;2023-10-09T14:31:19;18.40;99.90
8008;DHT22;4049;49.468;11.200;2023-10-09T14:33:52;18.40;99.90
8008;DHT22;4049;49.468;11.200;2023-10-09T14:36:19;18.40;99.90
8008;DHT22;4049;49.468;11.200;2023-10-09T14:38:47;18.30;99.90
8008;DHT22;4049;49.468;11.200;2023-10-09T14:41:18;18.30;99.90
8008;DHT22;4049;49.468;11.200;2023-10-09T14:43:49;18.30;99.90
8008;DHT22;4049;49.468;11.200;2023-10-09T14:46:17;18.30;99.90
8008;DHT22;4049;49.468;11.200;2023-10-09T14:48:49;18.20;99.90
8008;DHT22;4049;49.468;11.200;2023-10-09T14:51:19;18.20;99.90
8008;DHT22;4049;49.468;11.200;2023-10-09T14:53:53;18.20;99.90
8008;DHT22;4049;49.468;11.200;2023-10-09T14:56:23;18.20;99.90
8008;DHT22;4049;49.468;11.200;2023-10-09T14:58:55;18.20;99.90
8008;DHT22;4049;49.468;11.200;2023-10-09T15:01:25;18.20;99.90
8008;DHT22;4049;49.468;11.200;2023-10-09T15:03:55;18.20;99.90
8008;DHT22;4049;49.468;11.200;2023-10-09T15:06:23;18.20;99.90
8008;DHT22;4049;49.468;11.200;2023-10-09T15:08:53;18.20;99.90
8008;DHT22;4049;49.468;11.200;2023-10-09T15:11:24;18.20;99.90
8008;DHT22;4049;49.468;11.200;2023-10-09T15:13:54;18.20;99.90
8008;DHT22;4049;49.468;11.200;2023-10-09T15:16:21;18.20;99.90
8008;DHT22;4049;49.468;11.200;2023-10-09T15:18:54;18.20;99.90
8008;DHT22;4049;49.468;11.200;2023-10-09T15:21:22;18.10;99.90
8008;DHT22;4049;49.468;11.200;2023-10-09T15:23:52;18.10;99.90
8008;DHT22;4049;49.468;11.200;2023-10-09T15:26:20;18.10;99.90
8008;DHT22;4049;49.468;11.200;2023-10-09T15:28:48;18.10;99.90
8008;DHT22;4049;49.468;11.200;2023-10-09T15:31:16;18.10;99.90
8008;DHT22;4049;49.468;11.200;2023-10-09T15:33:44;18.10;99.90
8008;DHT22;4049;49.468;11.200;2023-10-09T15:36:15;18.10;99.90
8008;DHT22;4049;49.468;11.200;2023-10-09T15:38:46;18.00;99.90
8008;DHT22;4049;49.468;11.200;2023-10-09T15:41:13;18.00;99.90
8008;DHT22;4049;49.468;11.200;2023-10-09T15:43:41;18.00;99.90
8008;DHT22;4049;49.468;11.200;2023-10-09T15:46:11;18.00;99.90
8008;DHT22;4049;49.468;11.200;2023-10-09T15:48:39;18.00;99.90
8008;DHT22;4049;49.468;11.200;2023-10-09T15:51:09;18.00;99.90
8008;DHT22;4049;49.468;11.200;2023-10-09T15:53:41;17.90;99.90
8008;DHT22;4049;49.468;11.200;2023-10-09T15:56:08;17.90;99.90
8008;DHT22;4049;49.468;11.200;2023-10-09T15:58:37;17.90;99.90
8008;DHT22;4049;49.468;11.200;2023-10-09T16:01:09;17.80;99.90
8008;DHT22;4049;49.468;11.200;2023-10-09T16:03:38;17.80;99.90
8008;DHT22;4049;49.468;11.200;2023-10-09T16:06:06;17.80;99.90
8008;DHT22;4049;49.468;11.200;2023-10-09T16:08:34;17.80;99.90
8008;DHT22;4049;49.468;11.200;2023-10-09T16:11:04;17.70;99.90
8008;DHT22;4049;49.468;11.200;2023-10-09T16:13:30;17.70;99.90
8008;DHT22;4049;49.468;11.200;2023-10-09T16:15:58;17.60;99.90
8008;DHT22;4049;49.468;11.200;2023-10-09T16:18:26;17.60;99.90
8008;DHT22;4049;49.468;11.200;2023-10-09T16:20:54;17.60;99.90
8008;DHT22;4049;49.468;11.200;2023-10-09T16:23:21;17.50;99.90
8008;DHT22;4049;49.468;11.200;2023-10-09T16:25:48;17.50;99.90